Time;durP1;ratioP1;P1;durP2;ratioP2;P2;SDS_P1;SDS_P2;PMS_P1;PMS_P2;Temp;Humidity;BMP_temperature;BMP_pressure;BME280_temperature;BME280_humidity;BME280_pressure;Samples;Min_cycle;Max_cycle;Signal;HPM_P1;HPM_P2
2022/06/29 00:00:09;;;;;;;18.90;15.13;;;;;;;;;;4981164;28;20038;-71
2022/06/29 00:02:35;;;;;;;25.00;17.87;;;;;;;;;;4981942;28;20042;-72
2022/06/29 00:05:02;;;;;;;37.28;21.67;;;;;;;;;;4982961;28;20786;-71
2022/06/29 00:07:27;;;;;;;32.28;21.75;;;;;;;;;;4982645;28;20042;-71
2022/06/29 00:09:53;;;;;;;36.97;23.50;;;;;;;;;;4981958;28;20054;-71
2022/06/29 00:12:18;;;;;;;35.35;23.40;;;;;;;;;;4981773;28;20116;-70
2022/06/29 00:14:44;;;;;;;31.73;22.45;;;;;;;;;;4982864;28;20150;-69
2022/06/29 00:17:10;;;;;;;30.73;20.77;;;;;;;;;;4983324;28;20392;-70
2022/06/29 00:19:36;;;;;;;29.80;20.15;;;;;;;;;;4983234;28;20065;-70
2022/06/29 00:22:03;;;;;;;30.55;19.65;;;;;;;;;;4983038;28;20029;-69
2022/06/29 00:24:29;;;;;;;27.23;18.42;;;;;;;;;;4980775;28;20526;-70
2022/06/29 00:26:55;;;;;;;26.15;18.70;;;;;;;;;;4982967;28;20478;-70
2022/06/29 00:29:20;;;;;;;27.10;19.45;;;;;;;;;;4983163;28;20054;-70
2022/06/29 00:31:46;;;;;;;23.38;16.67;;;;;;;;;;4982748;28;20377;-70
2022/06/29 00:34:11;;;;;;;30.73;19.15;;;;;;;;;;4982370;28;20042;-69
2022/06/29 00:36:36;;;;;;;24.35;16.92;;;;;;;;;;4982963;28;20634;-70
2022/06/29 00:39:03;;;;;;;25.95;16.45;;;;;;;;;;4983055;28;20070;-70
2022/06/29 00:41:28;;;;;;;25.23;17.00;;;;;;;;;;4982759;28;20034;-69
2022/06/29 00:43:53;;;;;;;21.02;15.25;;;;;;;;;;4982569;28;20042;-70
2022/06/29 00:46:19;;;;;;;19.38;14.02;;;;;;;;;;4980252;28;20486;-69
2022/06/29 00:48:44;;;;;;;19.30;13.40;;;;;;;;;;4982429;28;20045;-70
2022/06/29 00:51:11;;;;;;;17.80;12.98;;;;;;;;;;4982428;28;20049;-70
2022/06/29 00:53:40;;;;;;;15.20;12.18;;;;;;;;;;4982286;28;20053;-70
2022/06/29 00:56:10;;;;;;;15.70;12.00;;;;;;;;;;4982302;28;20046;-69
2022/06/29 00:58:38;;;;;;;14.38;11.00;;;;;;;;;;4982408;28;20061;-69
2022/06/29 01:01:04;;;;;;;16.70;11.98;;;;;;;;;;4982358;28;20032;-70
2022/06/29 01:03:30;;;;;;;19.90;12.85;;;;;;;;;;4982066;28;20038;-70
2022/06/29 01:05:56;;;;;;;20.10;12.60;;;;;;;;;;4982680;28;20458;-71
2022/06/29 01:08:22;;;;;;;16.58;11.52;;;;;;;;;;4981308;28;20039;-70
2022/06/29 01:10:47;;;;;;;20.95;11.20;;;;;;;;;;4982026;28;20137;-69
2022/06/29 01:13:13;;;;;;;13.52;10.57;;;;;;;;;;4982040;28;20046;-70
2022/06/29 01:15:39;;;;;;;13.18;10.65;;;;;;;;;;4981730;28;20042;-69
2022/06/29 01:18:05;;;;;;;14.98;10.43;;;;;;;;;;4981896;28;20411;-70
2022/06/29 01:20:30;;;;;;;15.05;11.27;;;;;;;;;;4981219;28;20475;-72
2022/06/29 01:22:56;;;;;;;18.08;11.60;;;;;;;;;;4982309;28;20073;-70
2022/06/29 01:25:21;;;;;;;16.73;11.45;;;;;;;;;;4980444;28;20044;-73
2022/06/29 01:27:47;;;;;;;15.65;10.88;;;;;;;;;;4982198;28;20058;-70
2022/06/29 01:30:12;;;;;;;13.82;10.95;;;;;;;;;;4980901;28;20089;-70
2022/06/29 01:32:39;;;;;;;18.23;12.38;;;;;;;;;;4981856;28;20061;-70
2022/06/29 01:35:09;;;;;;;16.92;13.10;;;;;;;;;;4981880;28;20038;-71
2022/06/29 01:37:35;;;;;;;17.17;13.57;;;;;;;;;;4996324;28;20042;-70
2022/06/29 01:40:01;;;;;;;18.20;12.50;;;;;;;;;;4981724;28;20030;-70
2022/06/29 01:42:26;;;;;;;15.57;11.80;;;;;;;;;;4980821;28;20034;-70
2022/06/29 01:44:52;;;;;;;17.10;11.88;;;;;;;;;;4981306;28;20097;-70
2022/06/29 01:47:18;;;;;;;17.80;13.93;;;;;;;;;;4981947;28;20046;-70
2022/06/29 01:49:43;;;;;;;20.15;13.77;;;;;;;;;;4981580;28;20030;-70
2022/06/29 01:52:08;;;;;;;17.27;13.13;;;;;;;;;;4981024;28;20030;-70
2022/06/29 01:54:34;;;;;;;19.45;12.50;;;;;;;;;;4977510;28;20441;-72
2022/06/29 01:56:59;;;;;;;18.15;12.18;;;;;;;;;;4981933;28;20113;-70
2022/06/29 01:59:25;;;;;;;14.38;11.73;;;;;;;;;;4981645;28;20108;-70
2022/06/29 02:01:50;;;;;;;19.92;12.65;;;;;;;;;;4980681;28;20440;-70
2022/06/29 02:04:16;;;;;;;15.82;13.10;;;;;;;;;;4980071;28;20554;-72
2022/06/29 02:06:42;;;;;;;19.70;13.63;;;;;;;;;;4980351;28;20056;-71
2022/06/29 02:09:07;;;;;;;22.15;14.93;;;;;;;;;;4981664;28;20058;-70
2022/06/29 02:11:32;;;;;;;25.13;15.88;;;;;;;;;;4981660;28;20038;-72
2022/06/29 02:13:58;;;;;;;20.02;13.93;;;;;;;;;;4979070;28;20065;-72
2022/06/29 02:16:23;;;;;;;19.17;14.13;;;;;;;;;;4981378;28;20395;-71
2022/06/29 02:18:49;;;;;;;19.85;15.43;;;;;;;;;;4981489;28;20046;-72
2022/06/29 02:21:14;;;;;;;21.50;14.88;;;;;;;;;;4981672;28;20035;-71
2022/06/29 02:23:40;;;;;;;20.35;14.43;;;;;;;;;;4963471;28;20039;-71
2022/06/29 02:26:06;;;;;;;20.92;15.32;;;;;;;;;;4980537;28;20042;-70
2022/06/29 02:28:32;;;;;;;16.70;13.85;;;;;;;;;;4981487;28;20038;-70
2022/06/29 02:36:25;;;;;;;19.33;13.25;;;;;;;;;;4984135;28;20042;-70
2022/06/29 02:38:51;;;;;;;21.63;13.98;;;;;;;;;;4985150;28;20411;-71
2022/06/29 02:41:16;;;;;;;16.90;12.90;;;;;;;;;;4984660;28;20117;-70
2022/06/29 02:43:41;;;;;;;19.48;13.52;;;;;;;;;;4984942;28;20034;-71
2022/06/29 02:46:07;;;;;;;17.77;13.48;;;;;;;;;;4984329;28;20133;-70
2022/06/29 02:48:32;;;;;;;16.52;11.82;;;;;;;;;;4983477;28;20088;-71
2022/06/29 02:50:59;;;;;;;16.98;13.57;;;;;;;;;;4984390;28;20732;-71
2022/06/29 02:53:25;;;;;;;22.33;13.50;;;;;;;;;;4983487;28;20042;-70
2022/06/29 02:55:50;;;;;;;19.20;13.43;;;;;;;;;;4985180;28;20035;-72
2022/06/29 02:58:16;;;;;;;14.25;11.98;;;;;;;;;;4984144;28;20198;-71
2022/06/29 03:00:41;;;;;;;20.67;14.38;;;;;;;;;;4984619;28;20460;-71
2022/06/29 03:03:07;;;;;;;23.58;15.55;;;;;;;;;;4984654;28;20030;-72
2022/06/29 03:05:32;;;;;;;16.80;14.07;;;;;;;;;;4984048;28;20484;-73
2022/06/29 03:07:57;;;;;;;23.85;13.68;;;;;;;;;;4984692;28;20478;-71
2022/06/29 03:10:23;;;;;;;21.27;14.80;;;;;;;;;;4983019;28;20038;-73
2022/06/29 03:12:48;;;;;;;17.02;13.05;;;;;;;;;;4984267;28;20054;-72
2022/06/29 03:15:14;;;;;;;26.10;15.98;;;;;;;;;;4984260;28;20053;-73
2022/06/29 03:17:39;;;;;;;20.08;14.32;;;;;;;;;;4983013;28;20096;-74
2022/06/29 03:20:05;;;;;;;20.10;14.25;;;;;;;;;;4983479;28;20652;-71
2022/06/29 03:22:33;;;;;;;23.83;15.65;;;;;;;;;;4983933;28;20044;-74
2022/06/29 03:24:59;;;;;;;26.90;16.52;;;;;;;;;;4984276;28;20034;-71
2022/06/29 03:27:25;;;;;;;26.23;17.35;;;;;;;;;;4984129;28;20048;-71
2022/06/29 03:29:50;;;;;;;31.92;20.35;;;;;;;;;;4984142;28;20121;-74
2022/06/29 03:32:16;;;;;;;37.35;18.13;;;;;;;;;;4982981;28;20121;-72
2022/06/29 03:34:41;;;;;;;18.85;15.00;;;;;;;;;;4982443;28;20824;-70
2022/06/29 03:37:07;;;;;;;20.08;15.77;;;;;;;;;;4983988;28;20038;-70
2022/06/29 03:39:32;;;;;;;25.67;15.13;;;;;;;;;;4983621;28;20022;-70
2022/06/29 03:41:57;;;;;;;24.08;15.40;;;;;;;;;;4982577;28;20030;-70
2022/06/29 03:44:23;;;;;;;21.80;14.43;;;;;;;;;;4965841;28;20165;-70
2022/06/29 03:46:48;;;;;;;18.60;13.77;;;;;;;;;;4983758;28;20034;-70
2022/06/29 03:49:14;;;;;;;17.92;13.10;;;;;;;;;;4983452;28;20398;-70
2022/06/29 03:51:40;;;;;;;16.40;12.65;;;;;;;;;;4983493;28;20090;-70
2022/06/29 03:54:05;;;;;;;17.45;12.77;;;;;;;;;;4979910;28;20046;-69
2022/06/29 03:56:31;;;;;;;19.88;13.32;;;;;;;;;;4983089;28;20042;-70
2022/06/29 03:58:56;;;;;;;18.58;13.23;;;;;;;;;;4983563;28;20050;-70
2022/06/29 04:01:21;;;;;;;19.73;12.52;;;;;;;;;;4983534;28;20038;-70
2022/06/29 04:03:47;;;;;;;24.20;13.50;;;;;;;;;;4981153;28;20057;-70
2022/06/29 04:06:13;;;;;;;18.40;13.30;;;;;;;;;;4981070;28;20034;-69
2022/06/29 04:08:39;;;;;;;19.77;13.43;;;;;;;;;;4983492;28;20038;-69
2022/06/29 04:11:48;;;;;;;22.17;13.20;;;;;;;;;;4983142;28;20092;-69
2022/06/29 04:13:52;;;;;;;15.98;12.90;;;;;;;;;;4982988;28;20049;-70
2022/06/29 04:16:18;;;;;;;16.58;12.45;;;;;;;;;;4982904;28;20510;-70
2022/06/29 04:18:43;;;;;;;16.85;12.88;;;;;;;;;;4983063;28;20553;-69
2022/06/29 04:21:08;;;;;;;21.38;12.75;;;;;;;;;;4983293;28;20566;-69
2022/06/29 04:23:34;;;;;;;22.48;15.38;;;;;;;;;;4983068;28;20077;-70
2022/06/29 04:25:59;;;;;;;30.73;14.85;;;;;;;;;;4982204;28;20066;-69
2022/06/29 04:28:25;;;;;;;24.65;15.07;;;;;;;;;;4982992;28;20030;-69
2022/06/29 04:30:50;;;;;;;18.92;14.50;;;;;;;;;;4982708;28;20515;-69
2022/06/29 04:33:15;;;;;;;19.55;14.63;;;;;;;;;;4982903;28;20053;-70
2022/06/29 04:35:41;;;;;;;24.17;15.15;;;;;;;;;;4982350;28;20398;-69
2022/06/29 04:38:06;;;;;;;20.35;14.73;;;;;;;;;;4980434;28;20061;-69
2022/06/29 04:40:32;;;;;;;18.42;13.98;;;;;;;;;;4982520;28;20402;-69
2022/06/29 04:42:57;;;;;;;20.27;14.30;;;;;;;;;;4981405;28;20049;-69
2022/06/29 04:48:06;;;;;;;17.92;13.80;;;;;;;;;;4981714;28;20124;-69
2022/06/29 04:50:32;;;;;;;17.35;13.13;;;;;;;;;;4982488;28;20127;-70
2022/06/29 04:52:57;;;;;;;19.25;13.27;;;;;;;;;;4981969;28;20042;-69
2022/06/29 04:55:25;;;;;;;17.45;12.07;;;;;;;;;;4982141;28;20038;-70
2022/06/29 04:57:51;;;;;;;19.40;12.52;;;;;;;;;;4982155;28;20807;-70
2022/06/29 05:00:16;;;;;;;15.48;11.95;;;;;;;;;;4980625;28;20537;-70
2022/06/29 05:02:42;;;;;;;16.98;12.10;;;;;;;;;;4976230;28;20034;-70
2022/06/29 05:05:08;;;;;;;15.80;12.77;;;;;;;;;;4978795;28;20081;-70
2022/06/29 05:07:33;;;;;;;17.88;12.82;;;;;;;;;;4978585;28;20129;-70
2022/06/29 05:09:59;;;;;;;15.02;12.70;;;;;;;;;;4960292;28;20125;-71
2022/06/29 05:12:24;;;;;;;15.20;11.73;;;;;;;;;;4980811;28;20034;-70
2022/06/29 05:14:50;;;;;;;13.77;10.43;;;;;;;;;;4975643;28;20074;-71
2022/06/29 05:17:16;;;;;;;11.93;9.55;;;;;;;;;;4969132;28;20073;-71
2022/06/29 05:19:41;;;;;;;13.77;9.68;;;;;;;;;;4977045;28;20165;-71
2022/06/29 05:22:06;;;;;;;16.92;9.57;;;;;;;;;;4977582;28;20034;-70
2022/06/29 05:24:32;;;;;;;10.98;9.27;;;;;;;;;;4978236;28;20109;-71
2022/06/29 05:26:57;;;;;;;14.57;9.00;;;;;;;;;;4978270;28;20507;-71
2022/06/29 05:29:25;;;;;;;13.73;8.05;;;;;;;;;;4978185;28;20105;-70
2022/06/29 05:31:51;;;;;;;9.75;7.25;;;;;;;;;;4977808;28;20034;-70
2022/06/29 05:34:17;;;;;;;11.35;8.38;;;;;;;;;;4978092;28;20043;-70
2022/06/29 05:36:42;;;;;;;15.90;7.78;;;;;;;;;;4978183;28;20088;-69
2022/06/29 05:39:08;;;;;;;10.60;7.30;;;;;;;;;;4976953;28;20034;-69
2022/06/29 05:41:33;;;;;;;9.25;7.22;;;;;;;;;;4976297;28;20042;-69
2022/06/29 05:43:59;;;;;;;10.52;7.50;;;;;;;;;;4981262;28;20042;-70
2022/06/29 05:46:24;;;;;;;9.15;6.78;;;;;;;;;;4981496;28;20038;-69
2022/06/29 05:48:50;;;;;;;7.40;6.63;;;;;;;;;;4980862;28;20188;-72
2022/06/29 05:51:15;;;;;;;8.77;5.85;;;;;;;;;;4981238;28;20483;-71
2022/06/29 05:53:41;;;;;;;7.30;6.05;;;;;;;;;;4961891;28;20050;-71
2022/06/29 05:56:06;;;;;;;11.05;5.90;;;;;;;;;;4981654;28;20042;-71
2022/06/29 05:58:32;;;;;;;9.35;5.43;;;;;;;;;;4980284;28;20045;-71
2022/06/29 06:00:57;;;;;;;9.30;5.55;;;;;;;;;;4982041;28;20502;-71
2022/06/29 06:03:23;;;;;;;8.70;5.75;;;;;;;;;;4963155;28;20038;-72
2022/06/29 06:05:49;;;;;;;10.43;5.90;;;;;;;;;;4984063;28;20034;-72
2022/06/29 06:08:15;;;;;;;7.40;5.03;;;;;;;;;;4984031;28;20050;-71
2022/06/29 06:10:41;;;;;;;6.47;5.40;;;;;;;;;;4985531;28;20034;-72
2022/06/29 06:13:08;;;;;;;6.90;5.82;;;;;;;;;;4967105;28;20133;-72
2022/06/29 06:15:34;;;;;;;11.18;5.90;;;;;;;;;;4984001;28;20042;-71
2022/06/29 06:18:01;;;;;;;7.60;5.55;;;;;;;;;;4985232;28;20038;-70
2022/06/29 06:20:27;;;;;;;11.02;6.30;;;;;;;;;;4983591;28;20487;-70
2022/06/29 06:22:52;;;;;;;10.25;5.75;;;;;;;;;;4983819;28;20034;-70
2022/06/29 06:25:18;;;;;;;7.88;5.95;;;;;;;;;;4984024;28;20057;-69
2022/06/29 06:27:43;;;;;;;8.57;6.50;;;;;;;;;;4985295;28;20085;-69
2022/06/29 06:30:09;;;;;;;7.65;6.60;;;;;;;;;;4984601;28;20085;-69
2022/06/29 06:32:34;;;;;;;11.32;6.95;;;;;;;;;;4983589;28;20498;-70
2022/06/29 06:35:00;;;;;;;8.90;6.75;;;;;;;;;;4982312;28;20069;-72
2022/06/29 06:37:25;;;;;;;9.57;7.28;;;;;;;;;;4981334;28;20050;-71
2022/06/29 06:42:35;;;;;;;10.70;7.80;;;;;;;;;;4983587;28;20030;-71
2022/06/29 06:45:02;;;;;;;11.15;8.02;;;;;;;;;;4984026;28;20542;-71
2022/06/29 06:47:27;;;;;;;11.02;8.05;;;;;;;;;;4984124;28;20046;-71
2022/06/29 06:49:53;;;;;;;12.15;7.68;;;;;;;;;;4984975;28;20037;-70
2022/06/29 06:52:18;;;;;;;10.68;7.63;;;;;;;;;;4984769;28;20106;-70
2022/06/29 06:54:46;;;;;;;10.38;8.05;;;;;;;;;;4983593;28;20117;-70
2022/06/29 06:57:12;;;;;;;15.25;7.78;;;;;;;;;;4985238;28;20038;-70
2022/06/29 06:59:38;;;;;;;10.23;7.55;;;;;;;;;;4984047;28;20407;-69
2022/06/29 07:02:03;;;;;;;9.15;7.43;;;;;;;;;;4985232;28;20049;-70
2022/06/29 07:04:29;;;;;;;9.18;7.45;;;;;;;;;;4984114;28;20068;-69
2022/06/29 07:06:54;;;;;;;10.35;7.47;;;;;;;;;;4980731;28;20029;-70
2022/06/29 07:09:20;;;;;;;10.93;7.80;;;;;;;;;;4982182;28;20042;-70
2022/06/29 07:11:45;;;;;;;12.15;8.27;;;;;;;;;;4984437;28;20114;-70
2022/06/29 07:14:10;;;;;;;10.85;8.10;;;;;;;;;;4984114;28;20100;-69
2022/06/29 07:16:36;;;;;;;11.40;7.30;;;;;;;;;;4982978;28;20105;-72
2022/06/29 07:19:02;;;;;;;12.02;6.97;;;;;;;;;;4983147;28;20088;-70
2022/06/29 07:21:27;;;;;;;7.82;7.03;;;;;;;;;;4983389;28;20870;-69
2022/06/29 07:23:52;;;;;;;8.77;7.38;;;;;;;;;;4983760;28;20070;-69
2022/06/29 07:26:18;;;;;;;10.27;7.25;;;;;;;;;;4982869;28;20121;-69
2022/06/29 07:28:43;;;;;;;9.63;7.07;;;;;;;;;;4984352;28;20053;-69
2022/06/29 07:31:09;;;;;;;10.00;7.05;;;;;;;;;;4983444;28;20113;-69
2022/06/29 07:33:34;;;;;;;11.50;7.15;;;;;;;;;;4984133;28;20403;-69
2022/06/29 07:36:00;;;;;;;9.98;6.70;;;;;;;;;;4983901;28;20505;-69
2022/06/29 07:38:26;;;;;;;10.80;6.80;;;;;;;;;;4983437;28;20643;-72
2022/06/29 07:40:51;;;;;;;7.15;6.40;;;;;;;;;;4984116;28;20092;-69
2022/06/29 07:43:17;;;;;;;10.98;6.20;;;;;;;;;;4984102;28;20046;-70
2022/06/29 07:45:43;;;;;;;9.13;6.70;;;;;;;;;;4984331;28;20467;-70
2022/06/29 07:48:08;;;;;;;9.15;6.75;;;;;;;;;;4983921;28;20053;-71
2022/06/29 07:50:34;;;;;;;8.38;6.35;;;;;;;;;;4984585;28;20041;-69
2022/06/29 07:53:00;;;;;;;9.10;6.82;;;;;;;;;;4982995;28;20480;-67
2022/06/29 07:55:25;;;;;;;8.20;6.68;;;;;;;;;;4982906;28;20038;-67
2022/06/29 07:57:51;;;;;;;9.90;7.15;;;;;;;;;;4985889;28;20046;-68
2022/06/29 08:00:17;;;;;;;7.40;6.40;;;;;;;;;;4985006;28;20103;-70
2022/06/29 08:02:42;;;;;;;7.63;6.75;;;;;;;;;;4983740;28;20046;-71
2022/06/29 08:05:08;;;;;;;7.80;6.88;;;;;;;;;;4982334;28;20043;-71
2022/06/29 08:07:34;;;;;;;7.75;6.68;;;;;;;;;;4982990;28;20142;-71
2022/06/29 08:10:01;;;;;;;7.53;6.65;;;;;;;;;;4983358;28;20100;-74
2022/06/29 08:12:26;;;;;;;7.00;6.28;;;;;;;;;;4982396;28;20030;-72
2022/06/29 08:14:52;;;;;;;8.35;6.50;;;;;;;;;;4984454;28;20038;-73
2022/06/29 08:17:17;;;;;;;8.75;6.60;;;;;;;;;;4984694;28;20471;-73
2022/06/29 08:19:43;;;;;;;14.93;6.40;;;;;;;;;;4984840;28;20038;-72
2022/06/29 08:22:08;;;;;;;6.63;6.00;;;;;;;;;;4982736;28;20069;-72
2022/06/29 08:24:34;;;;;;;6.95;6.25;;;;;;;;;;4981553;28;20091;-71
2022/06/29 08:26:59;;;;;;;8.77;6.07;;;;;;;;;;4982652;28;20599;-70
2022/06/29 08:29:25;;;;;;;9.77;6.40;;;;;;;;;;4983065;28;20630;-72
2022/06/29 08:31:50;;;;;;;7.80;6.10;;;;;;;;;;4982878;28;20073;-72
2022/06/29 08:34:19;;;;;;;9.57;5.68;;;;;;;;;;4981663;28;20137;-70
2022/06/29 08:36:44;;;;;;;6.97;5.93;;;;;;;;;;4983732;28;20180;-72
2022/06/29 08:39:10;;;;;;;8.93;5.55;;;;;;;;;;4983883;28;20125;-69
2022/06/29 08:41:37;;;;;;;5.95;5.25;;;;;;;;;;4981174;28;20411;-69
2022/06/29 08:44:05;;;;;;;6.40;5.78;;;;;;;;;;4980321;28;20053;-68
2022/06/29 08:46:31;;;;;;;8.35;5.40;;;;;;;;;;4980846;28;20053;-69
2022/06/29 08:48:56;;;;;;;6.53;5.78;;;;;;;;;;4980216;28;20442;-69
2022/06/29 08:51:25;;;;;;;8.25;5.72;;;;;;;;;;4979715;28;20046;-69
2022/06/29 08:53:51;;;;;;;7.05;6.28;;;;;;;;;;4988375;28;20081;-70
2022/06/29 08:56:18;;;;;;;11.00;6.28;;;;;;;;;;4984278;28;20324;-69
2022/06/29 08:58:45;;;;;;;6.20;5.60;;;;;;;;;;4982358;28;20045;-69
2022/06/29 09:01:12;;;;;;;11.45;5.90;;;;;;;;;;4983872;28;20670;-69
2022/06/29 09:03:38;;;;;;;7.55;5.68;;;;;;;;;;4984004;28;20042;-69
2022/06/29 09:06:03;;;;;;;10.45;5.97;;;;;;;;;;4984199;28;20522;-69
2022/06/29 09:08:31;;;;;;;6.03;5.07;;;;;;;;;;4984069;28;20038;-69
2022/06/29 09:10:56;;;;;;;5.88;5.28;;;;;;;;;;4983657;28;21046;-69
2022/06/29 09:13:23;;;;;;;11.07;5.25;;;;;;;;;;4984065;28;20042;-69
2022/06/29 09:15:57;;;;;;;10.10;5.40;;;;;;;;;;4984531;28;20030;-69
2022/06/29 09:18:30;;;;;;;9.55;5.10;;;;;;;;;;4984169;28;20038;-69
2022/06/29 09:20:57;;;;;;;8.52;5.65;;;;;;;;;;4982889;28;20026;-72
2022/06/29 09:23:24;;;;;;;6.78;5.05;;;;;;;;;;4981491;28;20042;-71
2022/06/29 09:25:50;;;;;;;8.40;4.57;;;;;;;;;;4983238;28;20819;-69
2022/06/29 09:28:30;;;;;;;6.30;5.10;;;;;;;;;;4983176;28;20068;-70
2022/06/29 09:30:56;;;;;;;6.65;4.70;;;;;;;;;;4983186;28;20042;-69
2022/06/29 09:33:23;;;;;;;5.55;4.65;;;;;;;;;;4981730;28;20049;-70
2022/06/29 09:36:07;;;;;;;4.72;4.22;;;;;;;;;;4982231;28;20048;-70
2022/06/29 09:38:33;;;;;;;9.70;5.22;;;;;;;;;;4982279;28;20818;-69
2022/06/29 09:41:02;;;;;;;9.63;4.93;;;;;;;;;;4981996;28;20066;-70
2022/06/29 09:43:29;;;;;;;7.28;5.00;;;;;;;;;;4981777;28;20812;-69
2022/06/29 09:45:55;;;;;;;4.97;4.25;;;;;;;;;;4980549;28;20529;-69
2022/06/29 09:48:23;;;;;;;5.50;4.97;;;;;;;;;;4982794;28;20514;-70
2022/06/29 09:50:53;;;;;;;6.95;4.43;;;;;;;;;;4982515;28;20410;-71
2022/06/29 09:53:25;;;;;;;8.20;4.05;;;;;;;;;;4982555;28;20125;-70
2022/06/29 09:55:52;;;;;;;;;;;;;;;;;;4981678;28;20034;-70
2022/06/29 09:58:30;;;;;;;4.05;3.60;;;;;;;;;;4982010;28;20294;-70
2022/06/29 10:03:40;;;;;;;6.65;4.00;;;;;;;;;;4982659;28;20038;-70
2022/06/29 10:06:09;;;;;;;4.70;3.75;;;;;;;;;;4980941;28;20100;-69
2022/06/29 10:08:35;;;;;;;4.97;4.13;;;;;;;;;;4981896;28;20467;-70
2022/06/29 10:14:00;;;;;;;7.43;4.18;;;;;;;;;;4979989;28;20093;-69
2022/06/29 10:16:31;;;;;;;;;;;;;;;;;;4979702;28;20042;-69
2022/06/29 10:19:23;;;;;;;4.20;3.75;;;;;;;;;;4980279;28;19940;-70
2022/06/29 10:21:49;;;;;;;3.72;3.42;;;;;;;;;;4977226;28;20133;-69
2022/06/29 10:24:17;;;;;;;6.05;3.15;;;;;;;;;;4981841;28;20126;-70
2022/06/29 10:26:44;;;;;;;7.68;3.47;;;;;;;;;;4981839;28;20045;-70
2022/06/29 10:29:09;;;;;;;5.28;3.85;;;;;;;;;;4981997;28;20053;-70
2022/06/29 10:31:57;;;;;;;6.57;3.72;;;;;;;;;;4982090;28;20030;-70
2022/06/29 10:34:31;;;;;;;4.72;3.47;;;;;;;;;;4981140;28;20042;-70
2022/06/29 10:37:11;;;;;;;3.15;2.80;;;;;;;;;;4981613;28;20042;-71
2022/06/29 10:39:47;;;;;;;5.88;3.85;;;;;;;;;;4981926;28;20072;-71
2022/06/29 10:45:17;;;;;;;5.50;3.72;;;;;;;;;;4981405;28;20073;-69
2022/06/29 10:47:55;;;;;;;4.03;3.50;;;;;;;;;;4982193;28;20049;-70
2022/06/29 10:50:25;;;;;;;6.40;3.72;;;;;;;;;;4982547;28;20454;-70
2022/06/29 10:52:54;;;;;;;4.82;3.00;;;;;;;;;;4986242;28;20508;-70
2022/06/29 10:55:21;;;;;;;5.20;3.55;;;;;;;;;;4985827;28;20549;-69
2022/06/29 10:57:47;;;;;;;5.15;3.58;;;;;;;;;;4985940;28;20085;-70
2022/06/29 11:00:18;;;;;;;4.30;3.10;;;;;;;;;;4984752;28;20042;-70
2022/06/29 11:02:44;;;;;;;4.22;3.50;;;;;;;;;;4985446;28;20038;-69
2022/06/29 11:05:10;;;;;;;4.93;3.20;;;;;;;;;;4983097;28;20073;-69
2022/06/29 11:13:11;;;;;;;6.55;3.50;;;;;;;;;;4985117;28;20046;-69
2022/06/29 11:15:41;;;;;;;5.03;3.28;;;;;;;;;;4985488;28;20084;-70
2022/06/29 11:18:27;;;;;;;4.10;3.22;;;;;;;;;;4984820;28;20656;-69
2022/06/29 11:20:54;;;;;;;5.82;3.40;;;;;;;;;;4985155;28;20034;-70
2022/06/29 11:23:24;;;;;;;7.05;4.10;;;;;;;;;;4984561;28;20510;-70
2022/06/29 11:25:54;;;;;;;6.57;3.00;;;;;;;;;;4984965;28;20042;-70
2022/06/29 11:28:23;;;;;;;4.65;3.45;;;;;;;;;;4984633;28;20046;-70
2022/06/29 11:31:12;;;;;;;5.85;3.60;;;;;;;;;;4984669;28;20038;-70
2022/06/29 11:33:42;;;;;;;5.82;3.75;;;;;;;;;;4983297;28;20050;-71
2022/06/29 11:36:10;;;;;;;5.95;4.07;;;;;;;;;;4981822;28;20562;-70
2022/06/29 11:38:46;;;;;;;4.10;3.70;;;;;;;;;;4979023;28;20042;-70
2022/06/29 11:41:25;;;;;;;5.63;4.03;;;;;;;;;;4980177;28;20031;-71
2022/06/29 11:44:04;;;;;;;7.20;3.55;;;;;;;;;;4980470;28;20034;-72
2022/06/29 11:46:31;;;;;;;5.88;3.80;;;;;;;;;;4980020;28;20045;-71
2022/06/29 11:51:49;;;;;;;5.03;3.15;;;;;;;;;;4994542;28;20070;-71
2022/06/29 11:54:15;;;;;;;5.03;3.53;;;;;;;;;;4980344;28;20403;-69
2022/06/29 11:56:43;;;;;;;6.13;3.58;;;;;;;;;;4979474;28;20743;-70
2022/06/29 11:59:10;;;;;;;5.53;3.70;;;;;;;;;;4980741;28;20689;-70
2022/06/29 12:01:36;;;;;;;3.88;3.00;;;;;;;;;;4962174;28;20475;-70
2022/06/29 12:04:02;;;;;;;9.77;3.88;;;;;;;;;;4979719;28;20045;-70
2022/06/29 12:06:35;;;;;;;4.32;3.17;;;;;;;;;;4975984;28;20030;-73
2022/06/29 12:09:01;;;;;;;4.35;3.05;;;;;;;;;;4979288;28;20030;-70
2022/06/29 12:11:26;;;;;;;5.43;3.50;;;;;;;;;;4979166;28;20053;-70
2022/06/29 12:13:52;;;;;;;5.60;3.58;;;;;;;;;;4979212;28;20046;-70
2022/06/29 12:16:17;;;;;;;4.55;3.92;;;;;;;;;;4979401;28;20457;-70
2022/06/29 12:18:43;;;;;;;5.82;4.47;;;;;;;;;;4981935;28;20407;-69
2022/06/29 12:21:09;;;;;;;5.80;3.75;;;;;;;;;;4983451;28;20022;-71
2022/06/29 12:23:35;;;;;;;4.75;4.35;;;;;;;;;;4980177;28;20069;-70
2022/06/29 12:26:01;;;;;;;5.47;4.50;;;;;;;;;;4981434;28;20999;-70
2022/06/29 12:28:27;;;;;;;8.20;4.28;;;;;;;;;;4982196;28;20034;-69
2022/06/29 12:30:53;;;;;;;6.85;4.60;;;;;;;;;;4981554;28;20042;-70
2022/06/29 12:33:19;;;;;;;8.48;5.95;;;;;;;;;;4980982;28;20045;-70
2022/06/29 12:35:45;;;;;;;7.35;5.18;;;;;;;;;;4982068;28;21069;-71
2022/06/29 12:38:11;;;;;;;6.13;5.47;;;;;;;;;;4982696;28;20129;-71
2022/06/29 12:40:36;;;;;;;8.02;5.20;;;;;;;;;;4982976;28;20439;-71
2022/06/29 12:43:02;;;;;;;8.68;4.60;;;;;;;;;;4982978;28;20089;-71
2022/06/29 12:45:28;;;;;;;5.55;4.40;;;;;;;;;;4981634;28;20050;-71
2022/06/29 12:47:53;;;;;;;7.47;5.10;;;;;;;;;;4982795;28;20038;-71
2022/06/29 12:50:20;;;;;;;8.40;4.97;;;;;;;;;;4982686;28;21018;-70
2022/06/29 12:52:47;;;;;;;7.38;4.68;;;;;;;;;;4982470;28;20038;-72
2022/06/29 12:55:14;;;;;;;4.50;4.10;;;;;;;;;;4981791;28;20064;-71
2022/06/29 12:57:40;;;;;;;5.70;4.35;;;;;;;;;;4982158;28;20038;-71
2022/06/29 13:00:06;;;;;;;6.30;4.65;;;;;;;;;;4982445;28;20034;-71
2022/06/29 13:02:32;;;;;;;9.45;4.78;;;;;;;;;;4982600;28;20541;-71
2022/06/29 13:04:58;;;;;;;9.07;5.10;;;;;;;;;;4982340;28;20077;-71
2022/06/29 13:07:26;;;;;;;8.38;5.68;;;;;;;;;;4981597;28;20066;-71
2022/06/29 13:09:54;;;;;;;5.90;5.30;;;;;;;;;;4982494;28;20046;-71
2022/06/29 13:12:21;;;;;;;6.05;5.32;;;;;;;;;;4982011;28;20049;-71
2022/06/29 13:14:47;;;;;;;6.63;5.72;;;;;;;;;;4981338;28;20042;-71
2022/06/29 13:17:13;;;;;;;6.90;5.25;;;;;;;;;;4981441;28;20053;-71
2022/06/29 13:19:38;;;;;;;6.65;6.05;;;;;;;;;;4982024;28;20050;-71
2022/06/29 13:22:04;;;;;;;7.03;5.20;;;;;;;;;;4982308;28;20034;-71
2022/06/29 13:24:29;;;;;;;8.05;5.78;;;;;;;;;;4981770;28;20173;-71
2022/06/29 13:26:54;;;;;;;9.93;5.68;;;;;;;;;;4981698;28;20042;-71
2022/06/29 13:29:23;;;;;;;6.10;5.50;;;;;;;;;;4980636;28;20120;-71
2022/06/29 13:31:48;;;;;;;5.57;5.05;;;;;;;;;;4981969;28;20053;-69
2022/06/29 13:34:13;;;;;;;9.00;5.32;;;;;;;;;;4982115;28;20041;-70
2022/06/29 13:36:39;;;;;;;6.47;5.10;;;;;;;;;;4982219;28;20038;-69
2022/06/29 13:39:04;;;;;;;7.03;5.70;;;;;;;;;;4982299;28;20033;-70
2022/06/29 13:41:30;;;;;;;8.10;5.50;;;;;;;;;;4981042;28;20137;-69
2022/06/29 13:43:56;;;;;;;7.30;5.30;;;;;;;;;;4981974;28;20061;-70
2022/06/29 13:46:21;;;;;;;8.60;5.75;;;;;;;;;;4981800;28;20030;-69
2022/06/29 13:48:47;;;;;;;8.18;5.38;;;;;;;;;;4980944;28;20605;-69
2022/06/29 13:51:12;;;;;;;7.80;5.43;;;;;;;;;;4980751;28;20034;-69
2022/06/29 13:53:38;;;;;;;9.52;5.47;;;;;;;;;;4981894;28;20054;-69
2022/06/29 13:56:05;;;;;;;8.45;5.45;;;;;;;;;;4981484;28;20042;-69
2022/06/29 13:58:31;;;;;;;6.45;5.63;;;;;;;;;;4981597;28;20069;-70
2022/06/29 14:00:57;;;;;;;11.18;6.25;;;;;;;;;;4981650;28;20066;-69
2022/06/29 14:03:22;;;;;;;6.65;5.35;;;;;;;;;;4980605;28;20229;-68
2022/06/29 14:05:48;;;;;;;6.45;5.22;;;;;;;;;;4981246;28;20081;-68
2022/06/29 14:08:14;;;;;;;6.15;5.15;;;;;;;;;;4981507;28;20042;-67
2022/06/29 14:10:39;;;;;;;8.60;5.28;;;;;;;;;;4981736;28;20042;-69
2022/06/29 14:13:04;;;;;;;8.18;5.40;;;;;;;;;;4978943;28;20177;-69
2022/06/29 14:15:30;;;;;;;6.70;5.07;;;;;;;;;;4981375;28;20041;-69
2022/06/29 14:17:55;;;;;;;9.23;5.13;;;;;;;;;;4981347;28;20034;-69
2022/06/29 14:20:21;;;;;;;5.38;4.60;;;;;;;;;;4981643;28;20121;-69
2022/06/29 14:22:46;;;;;;;9.27;5.13;;;;;;;;;;4981088;28;20031;-69
2022/06/29 14:25:11;;;;;;;5.68;4.93;;;;;;;;;;4979003;28;20030;-70
2022/06/29 14:27:37;;;;;;;6.55;5.35;;;;;;;;;;4982757;28;20694;-69
2022/06/29 14:30:04;;;;;;;6.38;5.35;;;;;;;;;;4980946;28;20038;-69
2022/06/29 14:32:30;;;;;;;10.15;6.65;;;;;;;;;;4979762;28;20038;-69
2022/06/29 14:34:55;;;;;;;13.75;8.10;;;;;;;;;;4982403;28;20041;-69
2022/06/29 14:37:21;;;;;;;17.80;9.65;;;;;;;;;;4982575;28;20487;-69
2022/06/29 14:39:47;;;;;;;13.45;8.98;;;;;;;;;;4985497;28;20042;-69
2022/06/29 14:42:13;;;;;;;12.07;8.88;;;;;;;;;;4980182;28;20084;-69
2022/06/29 14:44:38;;;;;;;19.25;10.90;;;;;;;;;;4980682;28;20129;-70
2022/06/29 14:47:04;;;;;;;17.67;10.65;;;;;;;;;;4982223;28;20117;-70
2022/06/29 14:49:29;;;;;;;11.40;10.20;;;;;;;;;;4982867;28;20036;-70
2022/06/29 14:51:55;;;;;;;14.85;11.98;;;;;;;;;;4986383;28;20447;-70
2022/06/29 14:54:20;;;;;;;22.20;11.40;;;;;;;;;;4985437;28;20483;-70